Marathon Shores, Florida
Current Conditions -  °F | °C
As of 7:53 PM on Friday 24 Oct 2014 (Local Time) from KMTH Reporting Station
Overcast Overcast  
Wind Chill: 78°   Ceiling: 7000
Heat Index: 80°   Visibility: 10mi
Dew Point: 72°   Wind: 16mph
Humidity: 81%   Direction: 20°NNE
Pressure: 29.81"   Gusts: 24mph
Location:  24.73°N, 81.05°W
Report Text: KMTH 242353Z AUTO 02014G21KT 10SM OVC070 26/22 A2981 RMK AO2 SLP095 T02560222 10267 20256 53012
Loading
Personal Weather Stations






























Interactive Weather Map
Tropical Storm Tracking
New forecast layout! Learn more

10-Day Weather Forecast

Advertisements
Track Severe Weather on mobile